METAR Data
IDs: Format: Raw Decoded Include TAF

Data at: 2136 UTC 01 Dec 2021

METAR for:KEDJ (Bellefontaine Rgnl, OH, US)
Text:KEDJ 012115Z AUTO 15010KT 4SM BR SCT035 BKN040 BKN050 05/05 A2985 RMK A01 P0003
Temperature: 5.0°C ( 41°F)
Dewpoint: 5.0°C ( 41°F) [RH = 100%]
Pressure (altimeter):29.85 inches Hg (1010.9 mb)
Winds:from the SSE (150 degrees) at 12 MPH (10 knots; 5.1 m/s)
Visibility: 4 sm ( 6 km)
Ceiling:4000 feet AGL
Clouds: scattered clouds at 3500 feet AGL, broken clouds at 4000 feet AGL, broken clouds at 5000 feet AGL
Weather:BR (mist)
QC Flag:automated observation with no human augmentation